Terminal Aerodrome Forecast
Issued by NWS

Home | Current Version | Previous Version | Text Only | Print | Product List | Glossary On
Versions: 1 2 3 4 5 6 7 8 9 10 11 12 13
795
FTUS45 KABQ 281740
TAFFMN
TAF
KFMN 281740Z 2818/2918 24005KT P6SM FEW070 SCT120
     FM282000 29011KT P6SM SCT070 BKN120
      TEMPO 2820/2824 VRB17G28KT -SHRA BKN060 BKN100
     FM290000 32008KT P6SM VCSH SCT080 BKN110
     FM290600 07005KT P6SM SCT100 SCT150
     FM291500 13006KT P6SM SCT120=

USA.gov is the U.S. government's official web portal to all federal, state and local government web resources and services.